createdAt,value
2023-02-19T09:47:27.905Z,100.00
2023-02-19T09:49:36.795Z,100.00
2023-02-19T09:51:45.255Z,100.00
2023-02-19T09:53:50.984Z,100.00
2023-02-19T09:55:54.546Z,100.00
2023-02-19T09:57:59.638Z,100.00
2023-02-19T10:00:25.331Z,100.00
2023-02-19T10:02:31.643Z,100.00
2023-02-19T10:04:34.459Z,100.00
2023-02-19T10:06:38.868Z,100.00
2023-02-19T10:08:42.157Z,100.00
2023-02-19T10:10:45.203Z,100.00
2023-02-19T10:12:50.603Z,100.00
2023-02-19T10:15:00.564Z,100.00
2023-02-19T10:17:06.270Z,100.00
2023-02-19T10:19:13.157Z,100.00
2023-02-19T10:21:25.154Z,100.00
2023-02-19T10:23:28.585Z,100.00
2023-02-19T10:25:33.227Z,100.00
2023-02-19T10:27:36.223Z,100.00
2023-02-19T10:29:38.867Z,100.00
2023-02-19T10:31:41.791Z,100.00
2023-02-19T10:33:56.673Z,100.00
2023-02-19T10:36:39.699Z,100.00
2023-02-19T10:38:48.106Z,100.00
2023-02-19T10:41:00.909Z,100.00
2023-02-19T10:43:05.066Z,100.00
2023-02-19T10:45:19.002Z,100.00
2023-02-19T10:47:24.535Z,100.00
2023-02-19T10:49:40.711Z,100.00
2023-02-19T10:51:44.467Z,100.00
2023-02-19T10:54:03.299Z,100.00
2023-02-19T10:56:09.243Z,100.00
2023-02-19T10:58:29.335Z,100.00
2023-02-19T11:00:32.561Z,100.00
2023-02-19T11:02:37.417Z,100.00
2023-02-19T11:04:40.280Z,100.00
2023-02-19T11:06:45.273Z,100.00
2023-02-19T11:09:01.167Z,100.00
2023-02-19T11:11:03.925Z,100.00
2023-02-19T11:13:14.726Z,100.00
2023-02-19T11:15:45.023Z,100.00
2023-02-19T11:17:59.944Z,100.00
2023-02-19T11:20:24.162Z,100.00
2023-02-19T11:22:34.910Z,100.00
2023-02-19T11:24:40.660Z,100.00
2023-02-19T11:26:45.245Z,100.00
2023-02-19T11:28:56.393Z,100.00
2023-02-19T11:31:14.410Z,100.00
2023-02-19T11:33:17.699Z,100.00
2023-02-19T11:35:25.355Z,100.00
2023-02-19T11:37:30.550Z,100.00
2023-02-19T11:39:33.970Z,100.00
2023-02-19T11:42:14.664Z,100.00
2023-02-19T11:44:45.044Z,96.85
2023-02-19T11:47:18.185Z,90.02
2023-02-19T11:49:45.340Z,86.91
2023-02-19T11:51:52.680Z,80.75
2023-02-19T11:54:09.988Z,77.90
2023-02-19T11:56:19.347Z,74.78
2023-02-19T11:59:04.979Z,78.61
2023-02-19T12:01:25.958Z,78.20
2023-02-19T12:04:01.145Z,76.33
2023-02-19T12:06:28.956Z,77.46
2023-02-19T12:08:50.293Z,77.59
2023-02-19T12:11:04.553Z,77.38
2023-02-19T12:13:21.956Z,78.23
2023-02-19T12:15:59.479Z,74.75
2023-02-19T12:18:05.751Z,76.85
2023-02-19T12:20:31.787Z,74.16
2023-02-19T12:23:04.279Z,73.13
2023-02-19T12:25:28.200Z,71.56
2023-02-19T12:27:45.967Z,72.14
2023-02-19T12:29:52.230Z,72.53
2023-02-19T12:32:27.684Z,72.67
2023-02-19T12:34:45.382Z,76.07
2023-02-19T12:37:06.509Z,76.01
2023-02-19T12:39:18.060Z,72.45
2023-02-19T12:41:28.464Z,71.84
2023-02-19T12:43:33.626Z,71.23
2023-02-19T12:45:41.495Z,73.96
2023-02-19T12:47:58.305Z,75.07
2023-02-19T12:50:13.974Z,71.11
2023-02-19T12:52:24.984Z,65.10
2023-02-19T12:54:34.403Z,64.59
2023-02-19T12:56:50.338Z,88.83
2023-02-19T12:59:02.399Z,100.00
2023-02-19T13:01:07.638Z,100.00
2023-02-19T13:03:28.627Z,100.00
2023-02-19T13:05:59.289Z,100.00
2023-02-19T13:08:12.817Z,100.00
2023-02-19T13:10:39.379Z,100.00
2023-02-19T13:12:46.531Z,100.00
2023-02-19T13:15:03.607Z,100.00
2023-02-19T13:17:38.163Z,100.00
2023-02-19T13:19:40.812Z,100.00
2023-02-19T13:22:12.776Z,100.00
2023-02-19T13:24:28.393Z,100.00
2023-02-19T13:26:39.145Z,100.00
2023-02-19T13:29:00.679Z,100.00
2023-02-19T13:31:19.262Z,100.00
2023-02-19T13:33:35.733Z,100.00
2023-02-19T13:36:10.953Z,100.00
2023-02-19T13:38:15.822Z,100.00
2023-02-19T13:40:37.194Z,100.00
2023-02-19T13:42:40.019Z,100.00
2023-02-19T13:44:48.616Z,100.00
2023-02-19T13:46:52.110Z,100.00
2023-02-19T13:49:28.684Z,100.00
2023-02-19T13:51:35.166Z,100.00
2023-02-19T13:53:45.225Z,100.00
2023-02-19T13:56:34.421Z,100.00
2023-02-19T13:58:39.537Z,100.00
2023-02-19T14:00:52.219Z,100.00
2023-02-19T14:03:37.834Z,100.00
2023-02-19T14:06:03.573Z,100.00
2023-02-19T14:08:09.875Z,100.00
2023-02-19T14:10:34.578Z,100.00
2023-02-19T14:12:39.008Z,100.00
2023-02-19T14:14:42.775Z,100.00
2023-02-19T14:16:48.496Z,100.00
2023-02-19T14:18:53.141Z,100.00
2023-02-19T14:21:14.887Z,100.00
2023-02-19T14:23:24.785Z,100.00
2023-02-19T14:25:31.494Z,100.00
2023-02-19T14:27:38.417Z,100.00
2023-02-19T14:29:41.803Z,100.00
2023-02-19T14:31:48.682Z,100.00
2023-02-19T14:34:22.417Z,100.00
2023-02-19T14:36:52.291Z,100.00
2023-02-19T14:39:00.300Z,100.00
2023-02-19T14:41:05.200Z,100.00
2023-02-19T14:43:14.828Z,100.00
2023-02-19T14:45:20.066Z,100.00
2023-02-19T14:47:25.991Z,100.00
2023-02-19T14:49:35.152Z,100.00
2023-02-19T14:51:46.448Z,100.00
2023-02-19T14:53:51.842Z,100.00
2023-02-19T14:55:57.119Z,100.00
2023-02-19T14:58:05.425Z,100.00
2023-02-19T15:00:25.522Z,100.00
2023-02-19T15:02:32.875Z,100.00
2023-02-19T15:04:37.537Z,100.00
2023-02-19T15:06:40.766Z,100.00
2023-02-19T15:08:58.941Z,100.00
2023-02-19T15:11:04.693Z,100.00
2023-02-19T15:13:12.550Z,100.00
2023-02-19T15:15:30.034Z,100.00
2023-02-19T15:17:44.289Z,100.00
2023-02-19T15:19:48.171Z,100.00
2023-02-19T15:21:51.749Z,100.00
2023-02-19T15:23:57.598Z,100.00
2023-02-19T15:26:00.840Z,100.00
2023-02-19T15:28:26.340Z,100.00
2023-02-19T15:30:33.463Z,100.00
2023-02-19T15:32:36.557Z,100.00
2023-02-19T15:34:42.442Z,100.00
2023-02-19T15:36:50.745Z,100.00
2023-02-19T15:38:57.573Z,100.00
2023-02-19T15:41:01.811Z,100.00
2023-02-19T15:43:05.493Z,100.00
2023-02-19T15:45:23.718Z,100.00
2023-02-19T15:47:53.229Z,100.00
2023-02-19T15:50:32.566Z,100.00
2023-02-19T15:52:59.803Z,100.00
2023-02-19T15:55:03.817Z,100.00
2023-02-19T15:57:14.953Z,100.00
2023-02-19T15:59:18.029Z,100.00
2023-02-19T16:01:29.322Z,100.00
2023-02-19T16:03:36.629Z,100.00
2023-02-19T16:05:43.147Z,100.00
2023-02-19T16:07:49.012Z,100.00
2023-02-19T16:10:24.723Z,100.00
2023-02-19T16:12:28.795Z,100.00
2023-02-19T16:14:35.361Z,100.00
2023-02-19T16:16:42.425Z,100.00
2023-02-19T16:18:51.152Z,100.00
2023-02-19T16:20:54.393Z,100.00
2023-02-19T16:23:19.360Z,100.00
2023-02-19T16:25:44.695Z,100.00
2023-02-19T16:27:48.398Z,100.00
2023-02-19T16:29:53.630Z,100.00
2023-02-19T16:32:18.050Z,100.00
2023-02-19T16:34:49.273Z,100.00
2023-02-19T16:36:52.972Z,100.00
2023-02-19T16:39:08.448Z,100.00
2023-02-19T16:41:14.409Z,100.00
2023-02-19T16:43:26.049Z,100.00
2023-02-19T16:45:33.481Z,100.00
2023-02-19T16:47:42.072Z,100.00
2023-02-19T16:49:45.773Z,100.00
2023-02-19T16:51:49.771Z,100.00
2023-02-19T16:53:55.968Z,100.00
2023-02-19T16:56:03.129Z,100.00
2023-02-19T16:58:08.454Z,100.00
2023-02-19T17:00:24.561Z,100.00
2023-02-19T17:02:30.434Z,100.00
2023-02-19T17:04:35.372Z,100.00
2023-02-19T17:06:39.532Z,100.00
2023-02-19T17:08:44.838Z,100.00
2023-02-19T17:10:48.580Z,100.00
2023-02-19T17:12:53.346Z,100.00
2023-02-19T17:14:56.723Z,100.00
2023-02-19T17:17:02.089Z,100.00
2023-02-19T17:19:13.358Z,100.00
2023-02-19T17:21:28.198Z,100.00
2023-02-19T17:23:31.662Z,100.00
2023-02-19T17:25:34.910Z,100.00
2023-02-19T17:27:38.266Z,100.00
2023-02-19T17:29:41.709Z,100.00
2023-02-19T17:31:45.549Z,100.00
2023-02-19T17:33:51.558Z,100.00
2023-02-19T17:35:56.598Z,100.00
2023-02-19T17:38:00.977Z,100.00
2023-02-19T17:40:08.092Z,100.00
2023-02-19T17:42:11.510Z,100.00
2023-02-19T17:44:15.341Z,100.00
2023-02-19T17:46:30.864Z,100.00
2023-02-19T17:48:41.732Z,100.00
2023-02-19T17:50:45.209Z,100.00
2023-02-19T17:52:51.585Z,100.00
2023-02-19T17:54:54.788Z,100.00
2023-02-19T17:57:01.943Z,100.00
2023-02-19T17:59:05.532Z,100.00
2023-02-19T18:01:09.817Z,100.00
2023-02-19T18:03:14.802Z,100.00
2023-02-19T18:05:18.806Z,100.00
2023-02-19T18:07:25.216Z,100.00
2023-02-19T18:09:28.980Z,100.00
2023-02-19T18:11:32.168Z,100.00
2023-02-19T18:13:37.204Z,100.00
2023-02-19T18:15:44.469Z,100.00
2023-02-19T18:17:51.406Z,100.00
2023-02-19T18:19:55.276Z,100.00
2023-02-19T18:21:58.953Z,100.00
2023-02-19T18:24:03.290Z,100.00
2023-02-19T18:26:11.490Z,100.00
2023-02-19T18:28:25.023Z,100.00
2023-02-19T18:30:29.975Z,100.00
2023-02-19T18:32:34.217Z,100.00
2023-02-19T18:34:38.639Z,100.00
2023-02-19T18:36:46.808Z,100.00
2023-02-19T18:38:50.045Z,100.00
2023-02-19T18:40:54.604Z,100.00
2023-02-19T18:42:58.897Z,100.00
2023-02-19T18:45:04.572Z,100.00
2023-02-19T18:47:11.804Z,100.00
2023-02-19T18:49:20.376Z,100.00
2023-02-19T18:51:23.961Z,100.00
2023-02-19T18:53:31.426Z,100.00
2023-02-19T18:55:35.137Z,100.00
2023-02-19T18:57:41.960Z,100.00
2023-02-19T18:59:47.435Z,100.00
2023-02-19T19:01:51.814Z,100.00
2023-02-19T19:03:55.485Z,100.00
2023-02-19T19:05:59.774Z,100.00
2023-02-19T19:08:04.981Z,100.00
2023-02-19T19:10:10.321Z,100.00
2023-02-19T19:12:15.149Z,100.00
2023-02-19T19:14:30.285Z,100.00
2023-02-19T19:16:34.777Z,100.00
2023-02-19T19:18:39.208Z,100.00
2023-02-19T19:20:42.683Z,100.00
2023-02-19T19:22:49.919Z,100.00
2023-02-19T19:24:54.693Z,100.00
2023-02-19T19:26:59.502Z,100.00
2023-02-19T19:29:04.072Z,100.00
2023-02-19T19:31:08.224Z,100.00
2023-02-19T19:33:14.150Z,100.00
2023-02-19T19:35:18.883Z,100.00
2023-02-19T19:37:23.113Z,100.00
2023-02-19T19:39:26.667Z,100.00
2023-02-19T19:41:32.550Z,100.00
2023-02-19T19:43:37.284Z,100.00
2023-02-19T19:45:43.593Z,100.00
2023-02-19T19:47:49.538Z,100.00
2023-02-19T19:49:55.734Z,100.00
2023-02-19T19:52:01.706Z,100.00
2023-02-19T19:54:09.730Z,100.00
2023-02-19T19:56:15.524Z,100.00
2023-02-19T19:58:22.871Z,100.00
2023-02-19T20:00:26.520Z,100.00
2023-02-19T20:02:30.415Z,100.00
2023-02-19T20:04:34.274Z,100.00
2023-02-19T20:06:38.020Z,100.00
2023-02-19T20:08:41.908Z,100.00
2023-02-19T20:10:47.219Z,100.00
2023-02-19T20:12:52.320Z,100.00
2023-02-19T20:14:57.864Z,100.00
2023-02-19T20:17:01.919Z,100.00
2023-02-19T20:19:06.623Z,100.00
2023-02-19T20:21:11.409Z,100.00
2023-02-19T20:23:16.918Z,100.00
2023-02-19T20:25:22.595Z,100.00
2023-02-19T20:27:28.008Z,100.00
2023-02-19T20:29:35.223Z,100.00
2023-02-19T20:31:40.528Z,100.00
2023-02-19T20:33:44.946Z,100.00
2023-02-19T20:35:48.845Z,100.00
2023-02-19T20:37:55.817Z,100.00
2023-02-19T20:40:01.110Z,100.00
2023-02-19T20:42:06.642Z,100.00
2023-02-19T20:44:10.282Z,100.00
2023-02-19T20:46:14.163Z,100.00
2023-02-19T20:48:17.800Z,100.00
2023-02-19T20:50:21.328Z,100.00
2023-02-19T20:52:26.132Z,100.00
2023-02-19T20:54:32.414Z,100.00
2023-02-19T20:56:36.138Z,100.00
2023-02-19T20:58:43.736Z,100.00
2023-02-19T21:00:47.054Z,100.00
2023-02-19T21:02:50.699Z,100.00
2023-02-19T21:04:54.965Z,100.00
2023-02-19T21:06:58.661Z,100.00
2023-02-19T21:09:02.621Z,100.00
2023-02-19T21:11:07.780Z,100.00
2023-02-19T21:13:10.648Z,100.00
2023-02-19T21:15:17.179Z,100.00
2023-02-19T21:17:20.535Z,100.00
2023-02-19T21:19:23.853Z,100.00
2023-02-19T21:21:27.931Z,100.00
2023-02-19T21:23:31.097Z,100.00
2023-02-19T21:25:34.451Z,100.00
2023-02-19T21:27:40.143Z,100.00
2023-02-19T21:29:45.049Z,100.00
2023-02-19T21:31:51.921Z,100.00
2023-02-19T21:33:54.569Z,100.00
2023-02-19T21:35:58.701Z,100.00
2023-02-19T21:38:01.768Z,100.00
2023-02-19T21:40:04.967Z,100.00
2023-02-19T21:42:07.644Z,100.00
2023-02-19T21:44:10.769Z,100.00
2023-02-19T21:46:19.914Z,100.00
2023-02-19T21:48:23.156Z,100.00
2023-02-19T21:50:26.168Z,100.00
2023-02-19T21:52:28.949Z,100.00
2023-02-19T21:54:31.834Z,100.00
2023-02-19T21:56:36.473Z,100.00
2023-02-19T21:58:39.150Z,100.00
2023-02-19T22:00:42.132Z,100.00
2023-02-19T22:02:45.233Z,100.00
2023-02-19T22:04:53.627Z,100.00
2023-02-19T22:06:57.014Z,100.00
2023-02-19T22:09:00.237Z,100.00
2023-02-19T22:11:02.577Z,100.00
2023-02-19T22:13:05.059Z,100.00
2023-02-19T22:15:08.247Z,100.00
2023-02-19T22:17:11.215Z,100.00
2023-02-19T22:19:13.990Z,100.00
2023-02-19T22:21:17.581Z,100.00
2023-02-19T22:23:20.050Z,100.00
2023-02-19T22:25:22.626Z,100.00
2023-02-19T22:27:25.298Z,100.00
2023-02-19T22:29:27.937Z,100.00
2023-02-19T22:31:32.713Z,100.00
2023-02-19T22:33:35.387Z,100.00
2023-02-19T22:35:37.773Z,100.00
2023-02-19T22:37:40.267Z,100.00
2023-02-19T22:39:42.948Z,100.00
2023-02-19T22:41:45.662Z,100.00
2023-02-19T22:43:49.118Z,100.00
2023-02-19T22:45:51.765Z,100.00
2023-02-19T22:47:55.722Z,100.00
2023-02-19T22:49:58.203Z,100.00
2023-02-19T22:52:11.634Z,100.00
2023-02-19T22:54:13.914Z,100.00
2023-02-19T22:56:18.046Z,100.00
2023-02-19T22:58:20.798Z,100.00
2023-02-19T23:00:23.265Z,100.00
2023-02-19T23:02:25.635Z,100.00
2023-02-19T23:04:28.300Z,100.00
2023-02-19T23:06:33.194Z,100.00
